Huvudsida
METAR-TAF:

METAR-TAF

Flygplatser :

Oljeplattform

Norne Fpso, Norge

latitud: 66-01-48N, longitud: 008-04-48E, höjd: 10 m

Aktuellt väderrapport

Denna rapport gjordes för 43 minuter sedan, klockan 22:20 UTC
Vind 21 kt från sydost
Temperatur 0°C
Fuktighet 74%
Tryck
Sikt 10 km eller mer

METAR: ENNE 232220Z AUTO 14021KT 9999NDV OVC024/// 00/M04 Q//// W///S5

Tid: 00:03 (23:03 UTC)

Väderprognos

Denna rapport gjordes för 9 timmar och 3 minuter sedan, klockan 14:00 UTC
Prognos gäller från 23 kl. 15 UTC till 23 kl. 18 UTC
Vind 22 kt från ost/nordost
Sikt 10 km eller mer
Få moln på en höjd av 2000 ft
Brutna moln på en höjd av 3000 ft

TAF: ENNE 231400Z 2315/2318 07022KT 9999 FEW020 BKN030

Aktuella väderrapporter och prognoser från 4000 flygplatser (METAR- och TAF-rapporter).

De tillgängliga stationerna syns som gula och röda prickar på kartan.

För musen över prickarna för att se namnen på stationerna.

Klicka sedan för att få väderrapporter och prognoser.

För att ändra kartan: Klicka på de gröna knapparna med ett svart kors på för att zooma in; den gröna knappen med ett streck på för att zooma ut; eller på de gröna pilarna för angränsande kartor.


METAR-TAF: